Time;durP1;ratioP1;P1;durP2;ratioP2;P2;SDS_P1;SDS_P2;PMS_P1;PMS_P2;Temp;Humidity;BMP_temperature;BMP_pressure;BME280_temperature;BME280_humidity;BME280_pressure;Samples;Min_cycle;Max_cycle;Signal;HPM_P1;HPM_P2
2023/03/25 00:01:01;;;;;;;29.95;3.83;;;;;;;8.23;100.00;100132.31;5057777;28;20118;-69
2023/03/25 00:03:34;;;;;;;21.65;3.50;;;;;;;8.24;100.00;100141.94;5054897;28;20033;-68
2023/03/25 00:06:00;;;;;;;18.42;3.03;;;;;;;8.25;100.00;100132.16;5052886;28;20541;-69
2023/03/25 00:08:26;;;;;;;25.75;3.65;;;;;;;8.24;100.00;100138.44;5054511;28;20082;-69
2023/03/25 00:10:57;;;;;;;25.00;3.38;;;;;;;8.22;100.00;100122.66;5054017;28;20128;-69
2023/03/25 00:13:23;;;;;;;19.00;3.35;;;;;;;8.19;100.00;100145.97;5054671;28;20021;-70
2023/03/25 00:15:52;;;;;;;20.98;3.90;;;;;;;8.15;100.00;100131.31;5055151;28;20441;-69
2023/03/25 00:18:19;;;;;;;20.23;3.10;;;;;;;8.10;100.00;100132.56;5055196;28;20412;-69
2023/03/25 00:20:48;;;;;;;26.25;3.47;;;;;;;8.09;100.00;100130.06;5054695;28;20075;-69
2023/03/25 00:23:17;;;;;;;26.83;4.10;;;;;;;8.10;100.00;100137.03;5055027;28;20466;-69
2023/03/25 00:25:46;;;;;;;27.35;3.65;;;;;;;8.07;100.00;100137.34;5054385;28;20462;-70
2023/03/25 00:28:12;;;;;;;20.02;3.13;;;;;;;8.08;100.00;100133.72;5037511;28;20037;-70
2023/03/25 00:30:38;;;;;;;25.33;3.40;;;;;;;8.07;100.00;100138.16;5054471;28;20062;-70
2023/03/25 00:33:04;;;;;;;23.83;3.08;;;;;;;8.08;100.00;100139.00;5054711;28;20507;-70
2023/03/25 00:35:30;;;;;;;21.88;4.22;;;;;;;8.07;100.00;100138.16;5054283;28;20077;-70
2023/03/25 00:38:01;;;;;;;22.02;3.97;;;;;;;8.10;100.00;100137.88;5054646;28;20103;-69
2023/03/25 00:40:29;;;;;;;15.65;3.17;;;;;;;8.12;100.00;100132.44;5054390;28;20040;-69
2023/03/25 00:42:55;;;;;;;23.90;4.05;;;;;;;8.14;100.00;100135.78;5054524;28;20025;-70
2023/03/25 00:45:21;;;;;;;20.23;3.70;;;;;;;8.11;100.00;100131.59;5054380;28;20037;-69
2023/03/25 00:47:46;;;;;;;23.08;4.22;;;;;;;8.14;100.00;100127.03;5053812;28;20049;-69
2023/03/25 00:50:12;;;;;;;25.75;3.45;;;;;;;8.15;100.00;100126.88;5054270;28;20040;-69
2023/03/25 00:52:38;;;;;;;24.08;3.63;;;;;;;8.15;100.00;100131.31;5053983;28;20036;-69
2023/03/25 00:55:04;;;;;;;30.85;4.50;;;;;;;8.18;100.00;100144.28;5054156;28;20431;-69
2023/03/25 00:57:30;;;;;;;30.08;4.22;;;;;;;8.20;100.00;100116.69;5054321;28;20362;-69
2023/03/25 00:59:55;;;;;;;38.08;4.68;;;;;;;8.18;100.00;100137.19;5054647;28;20131;-69
2023/03/25 01:02:22;;;;;;;28.30;4.43;;;;;;;8.18;100.00;100108.06;5054234;28;20038;-68
2023/03/25 01:04:48;;;;;;;22.17;3.42;;;;;;;8.19;100.00;100108.88;5053713;28;20041;-70
2023/03/25 01:07:19;;;;;;;26.50;3.53;;;;;;;8.17;100.00;100119.63;5069912;28;20029;-70
2023/03/25 01:09:45;;;;;;;28.67;3.97;;;;;;;8.15;100.00;100124.22;5053935;28;20163;-69
2023/03/25 01:12:11;;;;;;;27.50;3.78;;;;;;;8.15;100.00;100126.88;5054048;28;20033;-69
2023/03/25 01:14:36;;;;;;;34.25;5.45;;;;;;;8.14;100.00;100127.03;5053544;28;20040;-69
2023/03/25 01:17:02;;;;;;;27.33;3.70;;;;;;;8.12;100.00;100130.63;5053772;28;20484;-69
2023/03/25 01:19:27;;;;;;;23.70;3.65;;;;;;;8.12;100.00;100129.78;5053374;28;20464;-69
2023/03/25 01:21:53;;;;;;;23.75;4.43;;;;;;;8.10;100.00;100123.81;5053960;28;20029;-70
2023/03/25 01:24:18;;;;;;;23.48;5.05;;;;;;;8.10;100.00;100119.31;5053872;28;20036;-69
2023/03/25 01:26:44;;;;;;;22.60;4.45;;;;;;;8.09;100.00;100124.78;5053474;28;20393;-70
2023/03/25 01:29:12;;;;;;;24.27;3.60;;;;;;;8.07;100.00;100124.91;5053791;28;20068;-69
2023/03/25 01:31:37;;;;;;;32.13;4.28;;;;;;;8.07;100.00;100122.25;5053365;28;20056;-70
2023/03/25 01:34:03;;;;;;;25.20;3.60;;;;;;;8.08;100.00;100123.13;5053457;28;20039;-69
2023/03/25 01:36:29;;;;;;;21.45;3.33;;;;;;;8.07;100.00;100124.91;5053748;28;20029;-69
2023/03/25 01:38:57;;;;;;;24.15;4.00;;;;;;;8.06;100.00;100110.00;5053286;28;20437;-69
2023/03/25 01:41:23;;;;;;;27.35;3.78;;;;;;;8.05;100.00;100116.28;5053305;28;20494;-69
2023/03/25 01:44:28;;;;;;;24.63;4.13;;;;;;;8.04;100.00;100117.25;5053146;28;20115;-70
2023/03/25 01:46:56;;;;;;;23.52;3.55;;;;;;;8.05;100.00;100123.41;5052822;28;20024;-69
2023/03/25 01:49:28;;;;;;;28.65;3.92;;;;;;;8.03;100.00;100118.25;5053601;28;20045;-69
2023/03/25 01:52:02;;;;;;;22.73;4.53;;;;;;;8.02;100.00;100126.34;5053019;28;20033;-69
2023/03/25 01:54:27;;;;;;;22.27;3.33;;;;;;;8.00;100.00;100118.53;5053549;28;20025;-70
2023/03/25 01:56:54;;;;;;;29.17;3.65;;;;;;;8.00;100.00;100105.28;5053216;28;20099;-70
2023/03/25 01:59:24;;;;;;;23.02;4.30;;;;;;;7.97;100.00;100108.19;5052833;28;20067;-69
2023/03/25 02:01:50;;;;;;;28.10;4.35;;;;;;;7.95;100.00;100100.38;5052836;28;20036;-69
2023/03/25 02:04:26;;;;;;;27.80;4.40;;;;;;;7.91;100.00;100096.34;5053253;28;20037;-69
2023/03/25 02:06:53;;;;;;;33.45;4.93;;;;;;;7.87;100.00;100110.03;5052869;28;20025;-69
2023/03/25 02:09:22;;;;;;;26.40;4.25;;;;;;;7.85;100.00;100088.13;5053246;28;20081;-69
2023/03/25 02:11:48;;;;;;;39.75;4.22;;;;;;;7.88;100.00;100095.78;5052657;28;20029;-69
2023/03/25 02:14:17;;;;;;;37.05;4.50;;;;;;;7.89;100.00;100100.09;5053177;28;20393;-69
2023/03/25 02:16:51;;;;;;;30.17;4.40;;;;;;;7.91;100.00;100108.75;5052578;28;20480;-70
2023/03/25 02:19:31;;;;;;;35.55;5.10;;;;;;;7.93;100.00;100107.63;5052751;28;20197;-69
2023/03/25 02:22:24;;;;;;;40.67;5.07;;;;;;;7.98;100.00;100096.63;5052285;28;20420;-70
2023/03/25 02:25:00;;;;;;;31.73;4.40;;;;;;;7.95;100.00;100095.06;5052430;28;20033;-68
2023/03/25 02:27:40;;;;;;;43.95;5.68;;;;;;;7.98;100.00;100087.84;5053006;28;20072;-70
2023/03/25 02:30:18;;;;;;;41.10;5.00;;;;;;;7.97;100.00;100099.41;5052880;28;20387;-69
2023/03/25 02:33:11;;;;;;;35.28;5.50;;;;;;;8.01;100.00;100083.09;5052262;28;20033;-70
2023/03/25 02:36:05;;;;;;;37.08;5.95;;;;;;;8.01;100.00;100082.25;5052313;28;20032;-72
2023/03/25 02:38:35;;;;;;;47.13;6.30;;;;;;;8.01;100.00;100085.72;5052661;28;20029;-70
2023/03/25 02:41:20;;;;;;;40.92;6.18;;;;;;;8.01;100.00;100088.38;5052119;28;20029;-71
2023/03/25 02:44:03;;;;;;;30.02;4.88;;;;;;;8.02;100.00;100081.28;5052139;28;20604;-70
2023/03/25 02:46:30;;;;;;;41.92;6.03;;;;;;;8.04;100.00;100093.41;5052915;28;20029;-69
2023/03/25 02:49:02;;;;;;;35.53;5.35;;;;;;;8.06;100.00;100083.50;5052210;28;20393;-70
2023/03/25 02:51:31;;;;;;;38.90;5.60;;;;;;;8.07;100.00;100092.28;5052759;28;20036;-69
2023/03/25 02:54:02;;;;;;;40.83;5.35;;;;;;;8.08;100.00;100070.94;5051944;28;20029;-70
2023/03/25 02:56:31;;;;;;;40.83;5.65;;;;;;;8.06;100.00;100070.28;5052318;28;20060;-69
2023/03/25 02:58:58;;;;;;;39.67;5.32;;;;;;;8.08;100.00;100092.16;5051737;28;20087;-69
2023/03/25 03:01:25;;;;;;;49.83;6.40;;;;;;;8.07;100.00;100066.63;5052520;28;20033;-69
2023/03/25 03:03:52;;;;;;;32.28;5.15;;;;;;;8.08;100.00;100065.66;5052048;28;20040;-69
2023/03/25 03:06:18;;;;;;;38.63;4.85;;;;;;;8.06;100.00;100067.63;5052458;28;20033;-69
2023/03/25 03:08:50;;;;;;;40.03;5.65;;;;;;;8.04;100.00;100064.25;5051842;28;20037;-69
2023/03/25 03:11:41;;;;;;;41.17;4.57;;;;;;;8.05;100.00;100055.34;5051833;28;20129;-70
2023/03/25 03:14:18;;;;;;;35.88;4.55;;;;;;;8.05;100.00;100059.81;5052136;28;20029;-70
2023/03/25 03:16:57;;;;;;;38.60;4.45;;;;;;;8.04;100.00;100060.78;5051964;28;20033;-69
2023/03/25 03:19:44;;;;;;;33.67;4.28;;;;;;;8.02;100.00;100063.56;5067820;28;20115;-69
2023/03/25 03:22:14;;;;;;;37.97;5.28;;;;;;;8.00;100.00;100060.25;5052172;28;20526;-69
2023/03/25 03:24:45;;;;;;;39.97;5.13;;;;;;;7.98;100.00;100061.34;5052195;28;20044;-68
2023/03/25 03:27:23;;;;;;;29.27;4.85;;;;;;;7.98;100.00;100075.41;5052222;28;20029;-69
2023/03/25 03:29:54;;;;;;;28.92;4.28;;;;;;;7.96;100.00;100066.78;5051863;28;20029;-69
2023/03/25 03:32:27;;;;;;;44.05;5.57;;;;;;;7.93;100.00;100061.78;5052344;28;20033;-70
2023/03/25 03:34:56;;;;;;;36.17;4.70;;;;;;;7.92;100.00;100065.38;5051733;28;20087;-69
2023/03/25 03:37:28;;;;;;;32.95;4.32;;;;;;;7.89;100.00;100063.03;5052125;28;20029;-69
2023/03/25 03:39:56;;;;;;;34.58;5.18;;;;;;;7.87;100.00;100063.16;5051777;28;20025;-70
2023/03/25 03:42:21;;;;;;;33.05;4.45;;;;;;;7.89;100.00;100076.28;5051945;28;20119;-69
2023/03/25 03:44:55;;;;;;;33.95;5.00;;;;;;;7.85;100.00;100066.91;5051651;28;20543;-69
2023/03/25 03:47:26;;;;;;;29.45;4.03;;;;;;;7.76;100.00;100072.09;5051940;28;20469;-69
2023/03/25 03:49:54;;;;;;;;;;;;;;;7.66;100.00;100075.69;5052044;28;20048;-69
2023/03/25 03:52:27;;;;;;;24.63;4.10;;;;;;;7.58;100.00;100079.03;5052052;28;19923;-68
2023/03/25 03:55:17;;;;;;;40.80;5.68;;;;;;;7.52;100.00;100071.66;5051351;28;20040;-69
2023/03/25 03:58:08;;;;;;;38.63;5.28;;;;;;;7.48;100.00;100096.72;5067407;28;20035;-69
2023/03/25 04:01:12;;;;;;;44.30;5.70;;;;;;;7.47;100.00;100081.84;5051913;28;20029;-70
2023/03/25 04:04:05;;;;;;;30.15;4.68;;;;;;;7.46;100.00;100077.50;5041770;28;20052;-69
2023/03/25 04:07:10;;;;;;;31.70;5.28;;;;;;;7.41;100.00;100081.41;5044917;28;20041;-69
2023/03/25 04:09:54;;;;;;;32.67;5.20;;;;;;;7.34;100.00;100077.63;5067307;28;20350;-69
2023/03/25 04:12:49;;;;;;;32.05;4.78;;;;;;;7.27;100.00;100075.66;5051827;28;20072;-69
2023/03/25 04:15:15;;;;;;;23.00;3.83;;;;;;;7.22;100.00;100068.13;5050258;28;20095;-69
2023/03/25 04:17:41;;;;;;;38.83;5.45;;;;;;;7.18;100.00;100091.38;5051692;28;20045;-69
2023/03/25 04:20:10;;;;;;;29.70;4.93;;;;;;;7.14;100.00;100081.22;5051303;28;20048;-70
2023/03/25 04:22:36;;;;;;;35.88;5.20;;;;;;;7.11;100.00;100090.25;5054726;28;20035;-69
2023/03/25 04:25:04;;;;;;;40.83;5.97;;;;;;;7.12;100.00;100084.00;5054872;28;20025;-69
2023/03/25 04:27:31;;;;;;;34.17;4.97;;;;;;;7.12;100.00;100091.94;5055055;28;20033;-69
2023/03/25 04:29:57;;;;;;;35.15;5.10;;;;;;;7.12;100.00;100093.72;5054791;28;20029;-69
2023/03/25 04:32:26;;;;;;;33.47;4.47;;;;;;;7.17;100.00;100075.66;5054858;28;20396;-69
2023/03/25 04:34:56;;;;;;;35.22;5.10;;;;;;;7.16;100.00;100085.38;5054930;28;20178;-71
2023/03/25 04:37:24;;;;;;;33.42;4.70;;;;;;;7.12;100.00;100091.94;5054937;28;20107;-69
2023/03/25 04:39:52;;;;;;;54.50;6.03;;;;;;;7.07;100.00;100099.41;5054938;28;20037;-69
2023/03/25 04:42:18;;;;;;;52.25;5.07;;;;;;;7.02;100.00;100114.88;5055016;28;20035;-69
2023/03/25 04:44:44;;;;;;;34.50;5.20;;;;;;;6.98;100.00;100103.69;5054837;28;20029;-68
2023/03/25 04:47:13;;;;;;;31.73;4.75;;;;;;;7.00;100.00;100101.78;5054400;28;20037;-69
2023/03/25 04:49:43;;;;;;;29.38;4.13;;;;;;;6.98;100.00;100094.94;5054778;28;20067;-69
2023/03/25 04:52:10;;;;;;;34.17;5.55;;;;;;;6.95;100.00;100100.50;5054354;28;20025;-69
2023/03/25 04:54:37;;;;;;;31.42;4.80;;;;;;;6.94;100.00;100104.09;5054665;28;20025;-70
2023/03/25 04:57:03;;;;;;;27.10;4.30;;;;;;;6.98;100.00;100109.00;5054124;28;20041;-70
2023/03/25 04:59:28;;;;;;;27.80;4.55;;;;;;;7.00;100.00;100104.44;5054323;28;20487;-70
2023/03/25 05:01:54;;;;;;;31.80;4.43;;;;;;;7.01;100.00;100099.97;5054552;28;20040;-69
2023/03/25 05:04:20;;;;;;;36.20;4.55;;;;;;;6.96;100.00;100105.66;5053749;28;20052;-70
2023/03/25 05:06:49;;;;;;;32.60;4.53;;;;;;;6.96;100.00;100105.66;5054619;28;20033;-69
2023/03/25 05:09:23;;;;;;;27.58;4.30;;;;;;;6.99;100.00;100113.31;5053661;28;20138;-69
2023/03/25 05:11:52;;;;;;;34.00;4.78;;;;;;;7.04;100.00;100129.63;5054351;28;20039;-68
2023/03/25 05:14:20;;;;;;;39.63;4.80;;;;;;;7.11;100.00;100110.59;5053903;28;20117;-69
2023/03/25 05:16:46;;;;;;;28.38;4.68;;;;;;;7.16;100.00;100111.00;5054419;28;20385;-68
2023/03/25 05:19:12;;;;;;;28.17;4.45;;;;;;;7.21;100.00;100114.06;5053836;28;20043;-69
2023/03/25 05:21:39;;;;;;;33.97;4.97;;;;;;;7.23;100.00;100112.16;5054373;28;20029;-68
2023/03/25 05:24:09;;;;;;;32.88;5.38;;;;;;;7.24;100.00;100109.38;5053575;28;20057;-69
2023/03/25 05:26:35;;;;;;;34.15;5.43;;;;;;;7.29;100.00;100108.97;5035811;28;20086;-68
2023/03/25 05:29:02;;;;;;;29.88;4.85;;;;;;;7.32;100.00;100116.63;5053672;28;20060;-69
2023/03/25 05:31:28;;;;;;;36.83;4.80;;;;;;;7.33;100.00;100117.44;5054549;28;20035;-68
2023/03/25 05:33:54;;;;;;;37.30;4.50;;;;;;;7.36;100.00;100117.19;5052878;28;20045;-68
2023/03/25 05:36:20;;;;;;;40.53;4.65;;;;;;;7.35;100.00;100126.09;5053501;28;20041;-68
2023/03/25 05:38:45;;;;;;;33.63;3.83;;;;;;;7.30;100.00;100123.88;5053938;28;20032;-68
2023/03/25 05:41:17;;;;;;;45.60;5.93;;;;;;;7.21;100.00;100124.66;5053079;28;20472;-68
2023/03/25 05:43:46;;;;;;;28.75;4.75;;;;;;;7.14;100.00;100140.25;5053885;28;20036;-69
2023/03/25 05:46:13;;;;;;;39.42;5.60;;;;;;;7.09;100.00;100125.75;5053276;28;20029;-70
2023/03/25 05:48:40;;;;;;;38.83;5.00;;;;;;;7.04;100.00;100132.25;5053770;28;20056;-69
2023/03/25 05:51:17;;;;;;;26.70;4.32;;;;;;;6.97;100.00;100128.50;5053172;28;20037;-69
2023/03/25 05:53:44;;;;;;;29.17;4.93;;;;;;;6.92;100.00;100132.50;5053633;28;20029;-69
2023/03/25 05:56:11;;;;;;;35.15;4.97;;;;;;;6.84;100.00;100139.28;5053103;28;20086;-70
2023/03/25 05:58:37;;;;;;;34.08;4.70;;;;;;;6.79;100.00;100145.94;5053156;28;20456;-69
2023/03/25 06:01:03;;;;;;;22.75;4.38;;;;;;;6.74;100.00;100154.25;5053261;28;20033;-71
2023/03/25 06:03:28;;;;;;;29.42;4.57;;;;;;;6.73;100.00;100144.66;5053491;28;20063;-69
2023/03/25 06:05:54;;;;;;;28.35;3.60;;;;;;;6.74;100.00;100146.34;5035689;28;20033;-69
2023/03/25 06:08:24;;;;;;;22.67;4.22;;;;;;;6.77;100.00;100161.09;5052781;28;20036;-69
2023/03/25 06:10:57;;;;;;;35.00;4.60;;;;;;;6.79;100.00;100149.44;5053668;28;20059;-69
2023/03/25 06:13:22;;;;;;;33.58;5.35;;;;;;;6.85;100.00;100153.34;5053010;28;20373;-70
2023/03/25 06:15:47;;;;;;;27.02;4.10;;;;;;;6.92;100.00;100159.78;5053244;28;20039;-69
2023/03/25 06:18:13;;;;;;;28.33;4.10;;;;;;;6.99;100.00;100147.72;5052387;28;20033;-69
2023/03/25 06:20:38;;;;;;;28.13;3.97;;;;;;;7.02;100.00;100146.63;5053121;28;20035;-70
2023/03/25 06:23:04;;;;;;;22.63;3.67;;;;;;;7.07;100.00;100150.50;5053077;28;20033;-69
2023/03/25 06:25:30;;;;;;;30.98;4.82;;;;;;;7.14;100.00;100142.06;5052604;28;20064;-69
2023/03/25 06:27:57;;;;;;;34.72;4.63;;;;;;;7.15;100.00;100155.16;5052921;28;20059;-69
2023/03/25 06:30:22;;;;;;;33.95;4.45;;;;;;;7.19;100.00;100166.31;5052182;28;20120;-69
2023/03/25 06:32:49;;;;;;;23.85;4.55;;;;;;;7.23;100.00;100157.13;5052843;28;20069;-69
2023/03/25 06:35:18;;;;;;;37.13;4.90;;;;;;;7.27;100.00;100155.03;5052477;28;20132;-70
2023/03/25 06:37:47;;;;;;;39.15;4.43;;;;;;;7.30;100.00;100168.00;5052533;28;20029;-70
2023/03/25 06:40:13;;;;;;;30.98;4.05;;;;;;;7.36;100.00;100144.50;5052221;28;20115;-69
2023/03/25 06:42:40;;;;;;;23.23;4.15;;;;;;;7.45;100.00;100163.16;5052506;28;20033;-69
2023/03/25 06:45:06;;;;;;;34.55;5.30;;;;;;;7.54;100.00;100154.44;5051902;28;20079;-69
2023/03/25 06:47:33;;;;;;;27.45;4.00;;;;;;;7.58;100.00;100161.13;5051762;28;20534;-69
2023/03/25 06:49:58;;;;;;;28.65;5.00;;;;;;;7.62;100.00;100172.28;5052445;28;20028;-69
2023/03/25 06:52:24;;;;;;;19.77;2.92;;;;;;;7.65;100.00;100174.66;5051907;28;20028;-69
2023/03/25 06:54:49;;;;;;;33.30;4.90;;;;;;;7.70;100.00;100162.69;5052178;28;20101;-69
2023/03/25 06:57:15;;;;;;;26.90;4.03;;;;;;;7.71;100.00;100179.41;5051830;28;20029;-70
2023/03/25 06:59:40;;;;;;;29.40;5.55;;;;;;;7.74;100.00;100169.38;5052114;28;20475;-69
2023/03/25 07:02:06;;;;;;;29.73;4.25;;;;;;;7.81;100.00;100174.09;5052054;28;20033;-69
2023/03/25 07:04:31;;;;;;;28.55;4.20;;;;;;;7.86;100.00;100169.25;5051671;28;20115;-70
2023/03/25 07:06:56;;;;;;;34.30;3.75;;;;;;;7.91;100.00;100181.13;5052034;28;20029;-70
2023/03/25 07:09:22;;;;;;;28.30;4.88;;;;;;;7.94;100.00;100199.38;5051521;28;20037;-69
2023/03/25 07:11:47;;;;;;;34.38;4.78;;;;;;;7.96;100.00;100180.69;5051856;28;20477;-69
2023/03/25 07:14:12;;;;;;;28.25;4.13;;;;;;;7.97;100.00;100173.56;5051528;28;20388;-71
2023/03/25 07:16:38;;;;;;;30.52;4.63;;;;;;;8.02;100.00;100185.44;5052167;28;20385;-70
2023/03/25 07:19:03;;;;;;;22.98;3.40;;;;;;;8.05;100.00;100181.69;5052324;28;20029;-70
2023/03/25 07:21:29;;;;;;;31.77;4.57;;;;;;;8.02;100.00;100185.44;5051671;28;20037;-69
2023/03/25 07:23:54;;;;;;;27.35;4.35;;;;;;;8.05;100.00;100187.81;5052098;28;20461;-70
2023/03/25 07:26:20;;;;;;;27.98;3.72;;;;;;;8.12;100.00;100186.28;5051375;28;20029;-70
2023/03/25 07:28:46;;;;;;;19.67;3.60;;;;;;;8.18;100.00;100192.00;5052317;28;20112;-69
2023/03/25 07:31:14;;;;;;;26.40;3.90;;;;;;;8.20;100.00;100182.94;5052106;28;20025;-71
2023/03/25 07:33:40;;;;;;;27.55;4.55;;;;;;;8.23;100.00;100180.00;5052056;28;20029;-69
2023/03/25 07:36:07;;;;;;;23.52;4.22;;;;;;;8.35;100.00;100177.22;5052119;28;20029;-70
2023/03/25 07:38:32;;;;;;;28.35;4.97;;;;;;;8.40;100.00;100189.06;5051590;28;20083;-69
2023/03/25 07:40:58;;;;;;;26.38;3.90;;;;;;;8.45;100.00;100183.38;5051996;28;20033;-69
2023/03/25 07:43:24;;;;;;;28.55;4.63;;;;;;;8.50;100.00;100198.88;5051577;28;20033;-70
2023/03/25 07:45:49;;;;;;;26.98;4.07;;;;;;;8.50;100.00;100181.13;5052077;28;20033;-68
2023/03/25 07:48:15;;;;;;;29.25;4.95;;;;;;;8.47;100.00;100195.50;5052072;28;20128;-68
2023/03/25 07:50:42;;;;;;;22.05;3.88;;;;;;;8.40;100.00;100194.34;5051568;28;20025;-69
2023/03/25 07:53:08;;;;;;;21.80;3.70;;;;;;;8.43;100.00;100180.00;5051835;28;20090;-69
2023/03/25 07:55:34;;;;;;;30.33;4.50;;;;;;;8.56;100.00;100193.00;5051007;28;20388;-69
2023/03/25 07:58:02;;;;;;;29.50;4.97;;;;;;;8.61;100.00;100188.09;5055506;28;20036;-69
2023/03/25 08:00:28;;;;;;;26.50;4.28;;;;;;;8.70;100.00;100200.50;5037069;28;20078;-69
2023/03/25 08:02:54;;;;;;;23.40;3.15;;;;;;;8.67;100.00;100194.66;5055231;28;20171;-69
2023/03/25 08:05:20;;;;;;;22.73;3.35;;;;;;;8.64;100.00;100193.97;5037184;28;20036;-70
2023/03/25 08:07:50;;;;;;;31.25;4.55;;;;;;;8.67;100.00;100192.00;5054361;28;20489;-69
2023/03/25 08:10:16;;;;;;;25.30;3.30;;;;;;;8.71;100.00;100207.47;5055164;28;20055;-70
2023/03/25 08:12:43;;;;;;;29.08;4.32;;;;;;;8.78;100.00;100205.94;5037014;28;20029;-69
2023/03/25 08:15:10;;;;;;;27.00;4.03;;;;;;;8.84;100.00;100204.53;5055377;28;20021;-69
2023/03/25 08:17:36;;;;;;;17.33;3.63;;;;;;;8.99;100.00;100202.25;5054996;28;20037;-69
2023/03/25 08:20:04;;;;;;;28.75;3.65;;;;;;;9.08;100.00;100224.44;5055228;28;20033;-69
2023/03/25 08:22:30;;;;;;;27.73;4.97;;;;;;;9.07;100.00;100209.50;5054853;28;20037;-69
2023/03/25 08:24:55;;;;;;;20.88;4.00;;;;;;;9.14;100.00;100211.41;5055337;28;20438;-69
2023/03/25 08:27:21;;;;;;;24.50;3.70;;;;;;;9.14;100.00;100215.91;5055115;28;20490;-69
2023/03/25 08:29:53;;;;;;;21.45;4.00;;;;;;;9.15;100.00;100229.03;5054796;28;20466;-69
2023/03/25 08:32:22;;;;;;;28.13;4.15;;;;;;;9.16;100.00;100225.38;5055120;28;20040;-69
2023/03/25 08:34:48;;;;;;;26.13;3.80;;;;;;;9.25;100.00;100228.97;5055015;28;20206;-68
2023/03/25 08:37:14;;;;;;;24.92;3.95;;;;;;;9.27;100.00;100223.50;5037183;28;20075;-69
2023/03/25 08:39:41;;;;;;;21.45;4.78;;;;;;;9.40;100.00;100223.19;5054580;28;20048;-68
2023/03/25 08:42:13;;;;;;;18.80;3.67;;;;;;;9.54;100.00;100222.72;5054935;28;20079;-68
2023/03/25 08:44:38;;;;;;;18.85;3.90;;;;;;;9.67;100.00;100217.91;5054559;28;20115;-69
2023/03/25 08:47:04;;;;;;;28.35;4.63;;;;;;;9.75;100.00;100242.88;5054895;28;20060;-68
2023/03/25 08:49:30;;;;;;;17.83;3.10;;;;;;;9.68;100.00;100230.19;5054650;28;20102;-70
2023/03/25 08:51:57;;;;;;;25.77;4.22;;;;;;;9.69;100.00;100233.69;5054616;28;20497;-68
2023/03/25 08:54:27;;;;;;;29.00;3.80;;;;;;;9.56;100.00;100233.19;5054484;28;20086;-68
2023/03/25 08:56:52;;;;;;;26.80;5.20;;;;;;;9.53;100.00;100239.63;5054633;28;20033;-69
2023/03/25 08:59:18;;;;;;;27.33;4.03;;;;;;;9.82;100.00;100230.66;5054529;28;20037;-68
2023/03/25 09:01:43;;;;;;;17.48;3.67;;;;;;;10.01;100.00;100264.25;5054049;28;20150;-69
2023/03/25 09:04:10;;;;;;;29.17;3.85;;;;;;;10.05;100.00;100247.88;5053327;28;20037;-69
2023/03/25 09:06:36;;;;;;;29.92;4.35;;;;;;;10.07;100.00;100245.06;5053939;28;20465;-70
2023/03/25 09:09:04;;;;;;;28.02;3.97;;;;;;;9.97;100.00;100238.97;5054560;28;20029;-70
2023/03/25 09:11:30;;;;;;;32.75;4.38;;;;;;;10.04;100.00;100248.00;5053999;28;20067;-70
2023/03/25 09:13:56;;;;;;;28.90;4.22;;;;;;;10.05;100.00;100247.03;5054174;28;20029;-68
2023/03/25 09:16:21;;;;;;;34.97;5.70;;;;;;;9.96;100.00;100248.75;5054129;28;20029;-68
2023/03/25 09:18:46;;;;;;;27.52;3.95;;;;;;;9.96;100.00;100266.53;5053687;28;20104;-69
2023/03/25 09:21:12;;;;;;;32.83;5.10;;;;;;;10.07;100.00;100250.38;5035988;28;20057;-69
2023/03/25 09:23:37;;;;;;;26.95;4.38;;;;;;;10.18;100.00;100254.63;5053526;28;20033;-69
2023/03/25 09:26:04;;;;;;;35.78;4.28;;;;;;;10.13;100.00;100248.94;5053734;28;20116;-69
2023/03/25 09:28:30;;;;;;;24.30;4.50;;;;;;;10.22;100.00;100248.84;5052473;28;20037;-71
2023/03/25 09:30:55;;;;;;;34.10;5.70;;;;;;;10.39;100.00;100257.88;5053543;28;20045;-69
2023/03/25 09:33:21;;;;;;;37.75;5.82;;;;;;;10.55;100.00;100259.00;5053354;28;20389;-68
2023/03/25 09:35:48;;;;;;;31.95;4.03;;;;;;;10.52;100.00;100249.50;5053511;28;20037;-69
2023/03/25 09:38:13;;;;;;;22.20;4.03;;;;;;;10.59;100.00;100249.72;5053935;28;20078;-67
2023/03/25 09:40:43;;;;;;;26.02;4.30;;;;;;;10.48;100.00;100252.63;5035445;28;20029;-68
2023/03/25 09:43:35;;;;;;;24.08;4.00;;;;;;;10.55;100.00;100267.84;5053674;28;20147;-68
2023/03/25 09:46:04;;;;;;;24.98;4.10;;;;;;;10.66;100.00;100256.13;5053640;28;20031;-68
2023/03/25 09:48:37;;;;;;;30.20;4.30;;;;;;;11.34;100.00;100269.72;5053069;28;20037;-68
2023/03/25 09:51:12;;;;;;;32.92;6.40;;;;;;;12.25;100.00;100260.25;5053488;28;20107;-70
2023/03/25 09:53:48;;;;;;;29.85;4.47;;;;;;;12.20;100.00;100251.91;5053132;28;20086;-69
2023/03/25 09:56:21;;;;;;;21.33;4.20;;;;;;;12.39;100.00;100272.09;5053163;28;20555;-67
2023/03/25 09:59:22;;;;;;;23.70;4.53;;;;;;;13.02;100.00;100259.94;5053136;28;20029;-68
2023/03/25 10:02:01;;;;;;;31.05;4.97;;;;;;;12.88;100.00;100274.78;5009824;28;20044;-69
2023/03/25 10:04:44;;;;;;;29.65;4.13;;;;;;;12.57;100.00;100309.31;5046789;28;20122;-69
2023/03/25 10:07:43;;;;;;;26.25;4.63;;;;;;;11.45;100.00;100301.41;5038979;28;20112;-68
2023/03/25 10:10:29;;;;;;;27.67;4.30;;;;;;;11.09;100.00;100297.03;5032603;28;20548;-69
2023/03/25 10:13:17;;;;;;;31.63;5.10;;;;;;;10.77;100.00;100300.25;5047485;28;20056;-68
2023/03/25 10:16:25;;;;;;;33.10;5.05;;;;;;;10.92;100.00;100298.72;5032024;28;20029;-68
2023/03/25 10:19:21;;;;;;;27.63;5.03;;;;;;;11.05;100.00;100287.69;4931743;29;20155;-68
2023/03/25 10:22:00;;;;;;;32.65;5.25;;;;;;;10.98;100.00;100299.94;5031957;28;20392;-68
2023/03/25 10:24:33;;;;;;;27.08;5.25;;;;;;;11.02;100.00;100301.28;5032292;28;20026;-67
2023/03/25 10:27:26;;;;;;;36.15;5.45;;;;;;;11.14;100.00;100301.03;5031911;28;20026;-68
2023/03/25 10:30:13;;;;;;;31.95;5.07;;;;;;;11.66;100.00;100295.69;5031536;28;20426;-68
2023/03/25 10:33:00;;;;;;;24.45;4.63;;;;;;;12.45;100.00;100298.97;5031717;28;20037;-68
2023/03/25 10:35:29;;;;;;;26.92;4.45;;;;;;;13.08;100.00;100309.16;5032227;28;20036;-69
2023/03/25 10:38:05;;;;;;;23.02;4.25;;;;;;;12.83;100.00;100298.50;5031694;28;20028;-69
2023/03/25 10:40:38;;;;;;;28.05;4.40;;;;;;;12.33;100.00;100308.25;5032020;28;20022;-69
2023/03/25 10:43:33;;;;;;;26.55;4.82;;;;;;;12.39;100.00;100320.97;5031992;28;20025;-69
2023/03/25 10:46:37;;;;;;;33.08;6.97;;;;;;;12.51;100.00;100306.31;5031224;28;20029;-70
2023/03/25 10:49:02;;;;;;;25.30;5.28;;;;;;;12.12;100.00;100330.91;5031954;28;20122;-69
2023/03/25 10:51:31;;;;;;;30.88;6.00;;;;;;;12.48;100.00;100319.13;5032008;28;20033;-71
2023/03/25 10:53:57;;;;;;;34.65;4.95;;;;;;;12.90;100.00;100312.00;5031006;28;20381;-74
2023/03/25 10:56:26;;;;;;;26.98;4.40;;;;;;;12.57;100.00;100336.84;5031931;28;20091;-69
2023/03/25 10:58:56;;;;;;;21.83;4.15;;;;;;;12.99;100.00;100316.34;5031543;28;20106;-70
2023/03/25 11:01:36;;;;;;;31.13;4.78;;;;;;;13.39;98.94;100320.84;5032368;28;20033;-70
2023/03/25 11:04:06;;;;;;;31.25;5.15;;;;;;;13.32;100.00;100321.66;5013646;28;20086;-70
2023/03/25 11:06:38;;;;;;;31.85;5.60;;;;;;;13.73;97.96;100311.72;5031635;28;20083;-70
2023/03/25 11:09:06;;;;;;;33.83;4.53;;;;;;;13.75;93.01;100324.94;5031267;28;20037;-70
2023/03/25 11:11:33;;;;;;;30.23;4.82;;;;;;;13.92;95.64;100309.66;5031288;28;20126;-69
2023/03/25 11:13:58;;;;;;;25.40;5.20;;;;;;;14.22;88.01;100331.25;5030922;28;20512;-69
2023/03/25 11:16:24;;;;;;;28.35;4.35;;;;;;;13.79;93.74;100326.22;5031751;28;20037;-69
2023/03/25 11:18:51;;;;;;;23.73;4.70;;;;;;;14.21;91.55;100325.06;5031262;28;20478;-69
2023/03/25 11:21:17;;;;;;;26.88;4.45;;;;;;;14.87;81.04;100323.81;5031661;28;20044;-69
2023/03/25 11:23:44;;;;;;;20.60;4.13;;;;;;;15.63;82.40;100329.09;5031159;28;20116;-69
2023/03/25 11:26:20;;;;;;;32.13;4.53;;;;;;;16.26;69.62;100339.44;5031513;28;20029;-70
2023/03/25 11:28:48;;;;;;;25.20;4.10;;;;;;;15.37;73.76;100330.41;5031159;28;20104;-68
2023/03/25 11:31:18;;;;;;;27.40;4.15;;;;;;;14.32;79.79;100350.59;5032743;28;20410;-69